الصفحة الرئيسية
METAR-TAF:

METAR-TAF

مطار :

ديوربل, السنغال

دائرة عرض: 14-39N, خط طول: 016-14W, ارتفاع: 7 متر

مراقبة الطقس الحالي

تاريخ ووقت الإصدار 48 دقيقة قبل الساعة 08:00UTC
ريح 4 عقدة من الشمال الغربي
درجة الحرارة 24°درجة مئوية
الرطوبة 89%
ضغط 1011 hPa
الرؤية 10 كم أو أكثر
الغيوم لا تقل 1500 م ولا وجود لمزنة ركامية السحاب الأسود

METAR: GOOD 250800Z 32004KT CAVOK 24/22 Q1011

زمن: 08:48 (08:48 UTC)


TAF: مفقودة

أرصاد الطقس والتوقعات من أكثر من 4000 مطار (تقارير الطقس للمطار METAR والتنبؤ بالطقس بالمطارTAF).

المحطات المتاحة هي النقط الصفراء والحمراء على الخريطة.

حرك المؤشر فوق النقطة لمعرفة اسم المحطة.

ثم انقر لمعرفة أرصاد وتوقعات الطقس.

لتغيير الخارطة: اضغط على الأزرار الخضراء مع رمز الصليب الأسود للتكبير. على الزر الأخضر مع شرطة للتصغير، أو على الأسهم الخضراء للخرائط المجاورة.


METAR-TAF: